createdAt,value
2022-09-12T00:00:26.224Z,12.1
2022-09-12T00:05:32.368Z,12.1
2022-09-12T00:10:21.319Z,12.1
2022-09-12T00:15:27.560Z,12.0
2022-09-12T00:20:16.465Z,12.0
2022-09-12T00:25:22.597Z,12.0
2022-09-12T00:30:28.675Z,11.9
2022-09-12T00:35:17.614Z,11.9
2022-09-12T00:40:23.736Z,11.9
2022-09-12T00:45:29.800Z,11.9
2022-09-12T00:50:18.855Z,11.9
2022-09-12T00:55:24.824Z,11.9
2022-09-12T01:00:31.034Z,11.9
2022-09-12T01:05:20.033Z,11.9
2022-09-12T01:10:26.401Z,11.9
2022-09-12T01:15:32.307Z,12.0
2022-09-12T01:20:21.199Z,11.9
2022-09-12T01:25:27.341Z,11.9
2022-09-12T01:30:16.304Z,11.9
2022-09-12T01:35:21.638Z,11.9
2022-09-12T01:40:27.630Z,11.8
2022-09-12T01:45:16.724Z,11.7
2022-09-12T01:50:22.752Z,11.7
2022-09-12T01:55:28.969Z,11.7
2022-09-12T02:00:17.947Z,11.7
2022-09-12T02:05:24.037Z,11.7
2022-09-12T02:10:32.560Z,11.7
2022-09-12T02:15:19.153Z,11.7
2022-09-12T02:20:47.000Z,11.6
2022-09-12T02:25:31.233Z,11.7
2022-09-12T02:30:20.255Z,11.7
2022-09-12T02:35:26.376Z,11.6
2022-09-12T02:40:32.366Z,11.6
2022-09-12T02:45:21.506Z,11.6
2022-09-12T02:50:27.506Z,11.6
2022-09-12T02:55:16.570Z,11.6
2022-09-12T03:00:22.624Z,11.6
2022-09-12T03:05:27.758Z,11.5
2022-09-12T03:10:16.765Z,11.5
2022-09-12T03:15:23.112Z,11.5
2022-09-12T03:20:29.047Z,11.3
2022-09-12T03:25:18.036Z,11.2
2022-09-12T03:30:24.009Z,11.2
2022-09-12T03:35:30.155Z,11.1
2022-09-12T03:40:19.153Z,11.1
2022-09-12T03:45:25.358Z,11.1
2022-09-12T03:50:31.281Z,11.0
2022-09-12T03:55:20.320Z,11.0
2022-09-12T04:00:26.398Z,10.9
2022-09-12T04:05:31.661Z,11.0
2022-09-12T04:10:20.671Z,11.0
2022-09-12T04:15:26.924Z,11.0
2022-09-12T04:20:15.778Z,11.0
2022-09-12T04:25:21.956Z,11.0
2022-09-12T04:30:28.016Z,11.0
2022-09-12T04:35:16.885Z,10.9
2022-09-12T04:40:23.048Z,10.9
2022-09-12T04:45:29.136Z,10.8
2022-09-12T04:50:18.110Z,10.8
2022-09-12T04:55:24.142Z,10.8
2022-09-12T05:00:30.265Z,10.8
2022-09-12T05:05:19.347Z,10.8
2022-09-12T05:10:25.397Z,10.8
2022-09-12T05:15:31.485Z,10.8
2022-09-12T05:20:21.410Z,10.8
2022-09-12T05:25:26.713Z,10.9
2022-09-12T05:30:32.716Z,10.7
2022-09-12T05:35:20.743Z,10.7
2022-09-12T05:40:26.849Z,10.8
2022-09-12T05:45:15.871Z,10.8
2022-09-12T05:50:21.942Z,11.0
2022-09-12T05:55:27.993Z,10.9
2022-09-12T06:00:17.070Z,11.0
2022-09-12T06:05:23.178Z,10.9
2022-09-12T06:10:29.259Z,10.8
2022-09-12T06:15:18.277Z,11.0
2022-09-12T06:20:24.653Z,11.0
2022-09-12T06:25:30.555Z,11.0
2022-09-12T06:30:22.347Z,11.0
2022-09-12T06:35:24.765Z,11.0
2022-09-12T06:40:30.812Z,10.9
2022-09-12T06:45:19.795Z,11.0
2022-09-12T06:50:25.857Z,11.0
2022-09-12T06:55:31.953Z,10.9
2022-09-12T07:00:20.988Z,10.9
2022-09-12T07:05:27.101Z,10.9
2022-09-12T07:10:19.093Z,11.1
2022-09-12T07:15:22.324Z,11.1
2022-09-12T07:20:28.543Z,11.1
2022-09-12T07:25:17.339Z,11.1
2022-09-12T07:30:23.631Z,11.1
2022-09-12T07:35:29.426Z,11.1
2022-09-12T07:40:18.499Z,11.2
2022-09-12T07:45:24.542Z,11.3
2022-09-12T07:50:30.518Z,11.2
2022-09-12T07:55:19.556Z,11.3
2022-09-12T08:00:25.889Z,11.4
2022-09-12T08:05:30.748Z,11.7
2022-09-12T08:10:19.818Z,11.6
2022-09-12T08:15:25.907Z,11.6
2022-09-12T08:20:32.280Z,11.6
2022-09-12T08:25:20.961Z,11.7
2022-09-12T08:30:28.091Z,11.7
2022-09-12T08:35:16.188Z,11.8
2022-09-12T08:40:22.363Z,11.5
2022-09-12T08:45:28.317Z,11.6
2022-09-12T08:50:17.365Z,11.6
2022-09-12T08:55:23.441Z,11.6
2022-09-12T09:00:29.544Z,11.7
2022-09-12T09:05:17.611Z,11.9
2022-09-12T09:10:23.700Z,12.1
2022-09-12T09:15:29.818Z,11.9
2022-09-12T09:20:18.854Z,12.0
2022-09-12T09:25:25.211Z,12.5
2022-09-12T09:30:31.023Z,12.8
2022-09-12T09:35:19.560Z,12.7
2022-09-12T09:40:25.598Z,12.6
2022-09-12T09:45:31.683Z,13.2
2022-09-12T09:50:20.717Z,13.3
2022-09-12T09:55:26.827Z,14.0
2022-09-12T10:00:15.809Z,14.4
2022-09-12T10:05:21.956Z,14.9
2022-09-12T10:10:28.022Z,15.3
2022-09-12T10:15:17.058Z,15.7
2022-09-12T10:20:23.259Z,16.0
2022-09-12T10:25:29.458Z,16.1
2022-09-12T10:30:18.247Z,16.4
2022-09-12T10:35:24.540Z,16.5
2022-09-12T10:40:30.483Z,17.2
2022-09-12T10:45:19.531Z,17.6
2022-09-12T10:50:25.636Z,17.5
2022-09-12T10:55:31.695Z,18.1
2022-09-12T11:00:20.693Z,17.4
2022-09-12T11:05:25.822Z,17.5
2022-09-12T11:10:36.329Z,17.7
2022-09-12T11:15:20.960Z,17.5
2022-09-12T11:20:26.987Z,17.1
2022-09-12T11:25:16.084Z,17.5
2022-09-12T11:30:22.441Z,17.1
2022-09-12T11:35:28.321Z,17.7
2022-09-12T11:40:17.269Z,17.4
2022-09-12T11:45:23.486Z,17.8
2022-09-12T11:50:29.329Z,18.4
2022-09-12T11:55:18.381Z,19.1
2022-09-12T12:00:24.626Z,18.3
2022-09-12T12:05:29.565Z,18.7
2022-09-12T12:10:18.604Z,19.2
2022-09-12T12:15:24.720Z,18.9
2022-09-12T12:20:30.929Z,18.9
2022-09-12T12:25:22.393Z,19.2
2022-09-12T12:30:26.210Z,19.4
2022-09-12T12:35:32.059Z,19.3
2022-09-12T12:40:21.056Z,19.9
2022-09-12T12:45:27.033Z,19.7
2022-09-12T12:50:16.103Z,19.4
2022-09-12T12:55:27.652Z,19.9
2022-09-12T13:00:28.199Z,20.0
2022-09-12T13:05:17.310Z,19.5
2022-09-12T13:10:23.397Z,19.5
2022-09-12T13:15:29.448Z,19.5
2022-09-12T13:20:33.779Z,19.3
2022-09-12T13:25:24.564Z,19.4
2022-09-12T13:30:30.846Z,19.2
2022-09-12T13:35:18.758Z,19.3
2022-09-12T13:40:25.047Z,19.5
2022-09-12T13:45:30.914Z,20.0
2022-09-12T13:50:19.901Z,19.9
2022-09-12T13:55:26.041Z,19.9
2022-09-12T14:00:32.125Z,20.3
2022-09-12T14:05:21.147Z,20.2
2022-09-12T14:10:27.272Z,20.0
2022-09-12T14:15:16.266Z,20.0
2022-09-12T14:20:22.308Z,19.8
2022-09-12T14:25:28.476Z,19.8
2022-09-12T14:30:17.432Z,19.8
2022-09-12T14:35:22.866Z,19.8
2022-09-12T14:40:28.962Z,19.7
2022-09-12T14:45:17.916Z,19.7
2022-09-12T14:50:24.005Z,19.6
2022-09-12T14:55:30.078Z,19.6
2022-09-12T15:00:19.119Z,19.6
2022-09-12T15:05:25.281Z,19.6
2022-09-12T15:10:31.266Z,19.6
2022-09-12T15:15:20.361Z,19.5
2022-09-12T15:20:26.393Z,19.4
2022-09-12T15:25:16.500Z,19.5
2022-09-12T15:30:21.507Z,19.4
2022-09-12T15:35:26.686Z,19.5
2022-09-12T15:40:15.844Z,19.5
2022-09-12T15:45:21.850Z,19.6
2022-09-12T15:50:27.801Z,19.6
2022-09-12T15:55:16.901Z,19.6
2022-09-12T16:00:22.974Z,19.5
2022-09-12T16:05:28.911Z,19.5
2022-09-12T16:10:17.864Z,19.7
2022-09-12T16:15:23.959Z,19.6
2022-09-12T16:20:29.981Z,19.8
2022-09-12T16:25:19.000Z,20.3
2022-09-12T16:30:25.155Z,20.6
2022-09-12T16:35:31.893Z,20.5
2022-09-12T16:40:20.711Z,20.4
2022-09-12T16:45:26.872Z,20.4
2022-09-12T16:50:32.831Z,20.7
2022-09-12T16:55:21.807Z,21.0
2022-09-12T17:00:27.948Z,20.7
2022-09-12T17:05:16.075Z,20.3
2022-09-12T17:10:22.090Z,19.2
2022-09-12T17:15:28.212Z,18.5
2022-09-12T17:20:17.234Z,18.1
2022-09-12T17:25:23.282Z,17.6
2022-09-12T17:30:29.365Z,17.2
2022-09-12T17:35:18.349Z,16.7
2022-09-12T17:40:42.513Z,16.4
2022-09-12T17:45:30.806Z,16.0
2022-09-12T17:50:31.426Z,15.6
2022-09-12T17:55:25.760Z,15.5
2022-09-12T18:00:31.895Z,15.2
2022-09-12T18:05:19.912Z,14.9
2022-09-12T18:10:26.064Z,14.6
2022-09-12T18:15:32.058Z,14.4
2022-09-12T18:20:21.124Z,14.2
2022-09-12T18:25:27.166Z,14.0
2022-09-12T18:30:21.507Z,13.9
2022-09-12T18:35:23.095Z,13.7
2022-09-12T18:40:28.338Z,13.5
2022-09-12T18:45:17.378Z,13.3
2022-09-12T18:50:23.658Z,13.1
2022-09-12T18:55:29.512Z,13.1
2022-09-12T19:00:18.555Z,12.9
2022-09-12T19:05:23.695Z,12.7
2022-09-12T19:10:29.723Z,12.5
2022-09-12T19:15:18.776Z,12.4
2022-09-12T19:20:24.841Z,12.3
2022-09-12T19:25:30.929Z,12.1
2022-09-12T19:30:19.959Z,12.1
2022-09-12T19:35:25.976Z,11.9
2022-09-12T19:40:31.977Z,11.7
2022-09-12T19:45:21.108Z,11.6
2022-09-12T19:50:27.249Z,11.5
2022-09-12T19:55:16.147Z,11.4
2022-09-12T20:00:22.272Z,11.3
2022-09-12T20:05:28.386Z,11.2
2022-09-12T20:10:17.402Z,11.1
2022-09-12T20:15:23.492Z,11.0
2022-09-12T20:20:29.512Z,10.9
2022-09-12T20:25:18.547Z,10.9
2022-09-12T20:30:24.648Z,10.8
2022-09-12T20:35:29.851Z,10.7
2022-09-12T20:40:18.904Z,10.6
2022-09-12T20:45:24.971Z,10.5
2022-09-12T20:50:31.125Z,10.4
2022-09-12T20:55:20.057Z,10.3
2022-09-12T21:00:26.104Z,10.2
2022-09-12T21:05:32.320Z,10.1
2022-09-12T21:10:21.270Z,10.1
2022-09-12T21:15:27.450Z,10.1
2022-09-12T21:20:16.457Z,10.0
2022-09-12T21:25:22.509Z,9.9
2022-09-12T21:30:28.549Z,9.8
2022-09-12T21:35:17.552Z,9.7
2022-09-12T21:40:23.111Z,9.7
2022-09-12T21:45:29.671Z,9.7
2022-09-12T21:50:17.939Z,9.7
2022-09-12T21:55:24.105Z,9.6
2022-09-12T22:00:30.115Z,9.5
2022-09-12T22:05:19.281Z,9.5
2022-09-12T22:10:25.438Z,9.4
2022-09-12T22:15:46.942Z,9.4
2022-09-12T22:20:20.485Z,9.2
2022-09-12T22:25:26.502Z,9.2
2022-09-12T22:30:32.604Z,9.2
2022-09-12T22:35:21.599Z,9.1
2022-09-12T22:40:27.826Z,9.0
2022-09-12T22:45:16.636Z,9.0
2022-09-12T22:50:22.779Z,8.9
2022-09-12T22:55:28.835Z,8.9
2022-09-12T23:00:17.924Z,8.8
2022-09-12T23:05:24.004Z,8.7
2022-09-12T23:10:30.059Z,8.7
2022-09-12T23:15:19.069Z,8.6
2022-09-12T23:20:25.186Z,8.5
2022-09-12T23:25:31.160Z,8.4
2022-09-12T23:30:20.310Z,8.4
2022-09-12T23:35:26.284Z,8.5
2022-09-12T23:40:32.637Z,8.4
2022-09-12T23:45:21.530Z,8.5
2022-09-12T23:50:27.635Z,8.6
2022-09-12T23:55:16.586Z,8.6
